Flight Track Log - Related Links

Times and Time Zones

All times are in EDT time to prevent confusion due to time zone crossing. See the LOF3410 flight status page for this flight to view local times or setup timezone preferences in your user account.

Time Position Orientation Groundspeed Altitude Reporting Facility
EDT Latitude Longitude Course Direction KTS MPH feet Rate Location/Type
Fri 02:17:16 PM 38.8000 -90.4333 49° Northeast 196 226 3,400  Level Gateway (St. Louis) TRACON
Fri 02:17:48 PM 38.8222 -90.4397 347° North 196 226 4,100 2,129 Climbing Kansas City Center
Fri 02:18:49 PM 38.8883 -90.4358 North 235 270 6,700 2,256 Climbing Kansas City Center
Fri 02:19:00 PM 39.0415 -90.1579 29° Northeast  Level Estimated
Fri 02:19:53 PM 38.9672 -90.4233 North 253 291 8,800  Level Kansas City Center
Fri 02:20:00 PM 39.1390 -90.0867 29° Northeast  Level Estimated
Fri 02:20:54 PM 39.0381 -90.4419 348° North 260 299 10,800  Level Kansas City Center
Fri 02:21:00 PM 39.2365 -90.0154 30° Northeast  Level Estimated
Fri 02:21:55 PM 39.1219 -90.4700 345° North 287 330 11,900  Level Kansas City Center
Fri 02:22:00 PM 38.7201 -90.2448 49° Northeast  Level FlightAware Approximate
Fri 02:22:58 PM 39.2092 -90.4986 346° North 324 373 12,800  Level Kansas City Center
Fri 02:23:59 PM 39.3064 -90.5208 350° North 348 400 13,900 968 Climbing Kansas City Center
Fri 02:25:02 PM 39.4064 -90.4614 25° Northeast 386 444 14,800 919 Climbing Kansas City Center
Fri 02:26:03 PM 39.5064 -90.3942 27° Northeast 399 459 15,800 960 Climbing Kansas City Center
Fri 02:27:07 PM 39.6072 -90.3239 28° Northeast 405 466 16,800 1,210 Climbing Kansas City Center
Fri 02:28:07 PM 39.7275 -90.2442 27° Northeast 405 466 18,300 1,171 Climbing Kansas City Center
Fri 02:29:10 PM 39.8125 -90.1767 31° Northeast 407 468 19,200 968 Climbing Kansas City Center
Fri 02:30:11 PM 39.9308 -90.0744 34° Northeast 419 482 20,300 968 Climbing Kansas City Center
Fri 02:31:14 PM 40.0317 -89.9872 34° Northeast 428 493 21,200 850 Climbing Kansas City Center
Fri 02:32:18 PM 40.1350 -89.8989 33° Northeast 441 507 22,100 873 Climbing Kansas City Center
Fri 02:33:04 PM 40.2175 -89.8267 34° Northeast 445 512 22,800 833 Climbing Chicago Center
Fri 02:34:06 PM 40.3208 -89.7394 33° Northeast 445 512 23,600 823 Climbing Chicago Center
Fri 02:35:08 PM 40.4236 -89.6489 34° Northeast 446 513 24,500 677 Climbing Chicago Center
Fri 02:36:10 PM 40.5472 -89.5411 34° Northeast 447 514 25,000 242 Climbing Chicago Center
Fri 02:37:12 PM 40.6542 -89.4478 33° Northeast 463 533 25,000 -387 Level Chicago Center
Fri 02:38:14 PM 40.7597 -89.3472 36° Northeast 471 542 24,200 -726 Descending Chicago Center
Fri 02:39:16 PM 40.8567 -89.2333 42° Northeast 470 541 23,500 -1,488 Descending Chicago Center
Fri 02:40:19 PM 40.9736 -89.0931 42° Northeast 475 547 21,100 -2,112 Descending Chicago Center
Fri 02:41:21 PM 41.0661 -88.9789 43° Northeast 460 529 19,100 -1,984 Descending Chicago Center
Fri 02:42:23 PM 41.1575 -88.8708 42° Northeast 443 510 17,000 -2,032 Descending Chicago Center
Fri 02:43:25 PM 41.2497 -88.7533 44° Northeast 434 499 14,900 -2,226 Descending Chicago Center
Fri 02:44:27 PM 41.3417 -88.6433 42° Northeast 414 476 12,400 -1,887 Descending Chicago Center
Fri 02:45:29 PM 41.4236 -88.5456 42° Northeast 400 460 11,000 -677 Descending Chicago Center
Fri 02:46:31 PM 41.5122 -88.4403 42° Northeast 395 455 11,000 -387 Level Chicago Center
Fri 02:47:33 PM 41.5956 -88.3422 41° Northeast 396 456 10,200 -484 Descending Chicago Center
Fri 02:48:35 PM 41.6767 -88.2456 42° Northeast 394 453 10,000 -97 Descending Chicago Center
Fri 02:49:37 PM 41.7653 -88.1383 42° Northeast 395 455 10,000  Level Chicago Center
Fri 02:50:40 PM 41.8256 -88.0169 56° Northeast 399 459 10,000  Level Chicago Center
Fri 02:51:42 PM 41.8622 -87.8808 70° East 386 444 10,000 -677 Level Chicago Center
Fri 02:52:44 PM 41.8833 -87.7575 77° East 316 364 8,600 -1,452 Descending Chicago Center
Fri 02:53:46 PM 41.8833 -87.6436 90° East 304 350 7,000 -1,645 Descending Chicago Center
Fri 02:54:48 PM 41.8833 -87.5339 90° East 297 342 5,200 -968 Descending Chicago Center
Fri 02:55:50 PM 41.8831 -87.4228 90° East 277 319 5,000 -97 Descending Chicago Center
Fri 02:56:52 PM 41.9078 -87.3461 67° East 251 289 5,000 48 Level Chicago Center
Fri 02:57:54 PM 41.9611 -87.3753 338° Northwest 206 237 5,100  Climbing Chicago Center
Fri 02:58:56 PM 41.9650 -87.4344 275° West 166 191 5,000 -48 Descending Chicago Center
Fri 02:59:59 PM 41.9647 -87.4992 270° West 164 189 5,000  Level Chicago Center
Fri 03:01:01 PM 41.9647 -87.5575 270° West 161 185 5,000 -97 Level Chicago Center
Fri 03:02:03 PM 41.9647 -87.6211 270° West 160 184 4,800 -532 Descending Chicago Center
Fri 03:03:05 PM 41.9650 -87.6825 270° West 161 185 3,900 -871 Descending Chicago Center
Fri 03:04:07 PM 41.9647 -87.7431 270° West 162 186 3,000 -871 Descending Chicago Center
Fri 03:05:09 PM 41.9647 -87.8025 270° West 154 177 2,100 -774 Descending Chicago Center
Fri 03:06:11 PM 41.9647 -87.8483 270° West 127 146 1,400 -629 Descending Chicago Center
Fri 03:07:13 PM 41.9647 -87.8992 270° West 126 145 800 -581 Descending Chicago Center

Login

Don't have an account? Register now (free) for customized features, flight alerts, and more!